Terminal Aerodrome Forecast
Issued by NWS

Home | Current Version | Previous Version | Text Only | Print | Product List | Glossary On
Versions: 1 2 3 4 5 6 7 8 9 10 11 12 13 14 15
243
FTUS43 KGRB 042340
TAFATW
TAF
KATW 042340Z 0500/0524 36016G25KT P6SM BKN050 BKN070
     FM050100 36010G16KT P6SM SCT050 SCT070
     FM050800 34007KT P6SM SKC
     FM052100 27004KT P6SM SKC=

USA.gov is the U.S. government's official web portal to all federal, state and local government web resources and services.